sensor_id;sensor_type;location;lat;lon;timestamp;P1;durP1;ratioP1;P2;durP2;ratioP2
35971;SDS011;22052;0.000;0.000;2023-02-18T00:02:02;7.75;;;2.88;;
35971;SDS011;22052;0.000;0.000;2023-02-18T00:04:28;8.38;;;2.88;;
35971;SDS011;22052;0.000;0.000;2023-02-18T00:06:55;9.45;;;3.15;;
35971;SDS011;22052;0.000;0.000;2023-02-18T00:09:21;8.05;;;2.60;;
35971;SDS011;22052;0.000;0.000;2023-02-18T00:11:47;6.80;;;3.15;;
35971;SDS011;22052;0.000;0.000;2023-02-18T00:14:14;11.98;;;3.20;;
35971;SDS011;22052;0.000;0.000;2023-02-18T00:16:41;7.30;;;3.10;;
35971;SDS011;22052;0.000;0.000;2023-02-18T00:19:10;8.70;;;3.10;;
35971;SDS011;22052;0.000;0.000;2023-02-18T00:21:36;6.78;;;2.55;;
35971;SDS011;22052;0.000;0.000;2023-02-18T00:24:03;10.75;;;3.03;;
35971;SDS011;22052;0.000;0.000;2023-02-18T00:26:30;6.65;;;2.92;;
35971;SDS011;22052;0.000;0.000;2023-02-18T00:28:56;6.82;;;2.65;;
35971;SDS011;22052;0.000;0.000;2023-02-18T00:31:23;7.90;;;3.17;;
35971;SDS011;22052;0.000;0.000;2023-02-18T00:33:50;5.72;;;2.42;;
35971;SDS011;22052;0.000;0.000;2023-02-18T00:36:16;5.43;;;2.65;;
35971;SDS011;22052;0.000;0.000;2023-02-18T00:38:47;6.45;;;2.65;;
35971;SDS011;22052;0.000;0.000;2023-02-18T00:41:13;8.18;;;2.67;;
35971;SDS011;22052;0.000;0.000;2023-02-18T00:43:40;7.55;;;3.10;;
35971;SDS011;22052;0.000;0.000;2023-02-18T00:46:06;5.35;;;2.45;;
35971;SDS011;22052;0.000;0.000;2023-02-18T00:48:33;5.47;;;2.60;;
35971;SDS011;22052;0.000;0.000;2023-02-18T00:50:59;5.32;;;2.67;;
35971;SDS011;22052;0.000;0.000;2023-02-18T00:53:29;6.63;;;2.88;;
35971;SDS011;22052;0.000;0.000;2023-02-18T00:55:55;7.88;;;2.58;;
35971;SDS011;22052;0.000;0.000;2023-02-18T00:58:21;5.82;;;2.63;;
35971;SDS011;22052;0.000;0.000;2023-02-18T01:00:48;7.53;;;2.70;;
35971;SDS011;22052;0.000;0.000;2023-02-18T01:03:14;5.00;;;2.70;;
35971;SDS011;22052;0.000;0.000;2023-02-18T01:05:41;6.95;;;2.60;;
35971;SDS011;22052;0.000;0.000;2023-02-18T01:08:08;6.97;;;2.78;;
35971;SDS011;22052;0.000;0.000;2023-02-18T01:10:36;7.00;;;2.28;;
35971;SDS011;22052;0.000;0.000;2023-02-18T01:13:04;6.85;;;2.53;;
35971;SDS011;22052;0.000;0.000;2023-02-18T01:15:31;5.95;;;2.60;;
35971;SDS011;22052;0.000;0.000;2023-02-18T01:17:57;7.85;;;2.58;;
35971;SDS011;22052;0.000;0.000;2023-02-18T01:20:23;6.43;;;2.30;;
35971;SDS011;22052;0.000;0.000;2023-02-18T01:22:49;4.55;;;2.17;;
35971;SDS011;22052;0.000;0.000;2023-02-18T01:25:16;5.72;;;2.42;;
35971;SDS011;22052;0.000;0.000;2023-02-18T01:27:42;5.38;;;2.42;;
35971;SDS011;22052;0.000;0.000;2023-02-18T01:30:09;6.93;;;2.55;;
35971;SDS011;22052;0.000;0.000;2023-02-18T01:32:35;6.45;;;2.58;;
35971;SDS011;22052;0.000;0.000;2023-02-18T01:35:03;5.00;;;2.25;;
35971;SDS011;22052;0.000;0.000;2023-02-18T01:37:29;6.03;;;2.42;;
35971;SDS011;22052;0.000;0.000;2023-02-18T01:39:55;7.03;;;2.25;;
35971;SDS011;22052;0.000;0.000;2023-02-18T01:42:22;4.90;;;2.65;;
35971;SDS011;22052;0.000;0.000;2023-02-18T01:44:49;4.55;;;2.25;;
35971;SDS011;22052;0.000;0.000;2023-02-18T01:47:16;5.15;;;2.28;;
35971;SDS011;22052;0.000;0.000;2023-02-18T01:49:42;4.47;;;2.20;;
35971;SDS011;22052;0.000;0.000;2023-02-18T01:52:14;5.60;;;2.42;;
35971;SDS011;22052;0.000;0.000;2023-02-18T01:54:43;4.03;;;2.10;;
35971;SDS011;22052;0.000;0.000;2023-02-18T01:57:11;4.07;;;2.25;;
35971;SDS011;22052;0.000;0.000;2023-02-18T01:59:44;4.53;;;2.00;;
35971;SDS011;22052;0.000;0.000;2023-02-18T02:02:12;3.83;;;2.17;;
35971;SDS011;22052;0.000;0.000;2023-02-18T02:04:39;5.78;;;2.20;;
35971;SDS011;22052;0.000;0.000;2023-02-18T02:07:05;4.70;;;2.05;;
35971;SDS011;22052;0.000;0.000;2023-02-18T02:09:31;4.55;;;1.95;;
35971;SDS011;22052;0.000;0.000;2023-02-18T02:14:59;4.55;;;2.22;;
35971;SDS011;22052;0.000;0.000;2023-02-18T02:20:30;6.18;;;2.20;;
35971;SDS011;22052;0.000;0.000;2023-02-18T02:30:49;4.28;;;1.92;;
35971;SDS011;22052;0.000;0.000;2023-02-18T02:38:30;4.15;;;1.90;;
35971;SDS011;22052;0.000;0.000;2023-02-18T02:45:53;5.50;;;1.98;;
35971;SDS011;22052;0.000;0.000;2023-02-18T02:48:41;4.45;;;1.92;;
35971;SDS011;22052;0.000;0.000;2023-02-18T02:51:26;3.55;;;1.65;;
35971;SDS011;22052;0.000;0.000;2023-02-18T02:53:53;3.72;;;2.10;;
35971;SDS011;22052;0.000;0.000;2023-02-18T02:56:23;3.65;;;2.10;;
35971;SDS011;22052;0.000;0.000;2023-02-18T02:58:54;5.25;;;2.22;;
35971;SDS011;22052;0.000;0.000;2023-02-18T03:01:43;2.97;;;1.67;;
35971;SDS011;22052;0.000;0.000;2023-02-18T03:06:45;3.53;;;1.90;;
35971;SDS011;22052;0.000;0.000;2023-02-18T03:11:58;4.47;;;1.92;;
35971;SDS011;22052;0.000;0.000;2023-02-18T03:14:27;4.22;;;2.08;;
35971;SDS011;22052;0.000;0.000;2023-02-18T03:16:59;3.55;;;1.60;;
35971;SDS011;22052;0.000;0.000;2023-02-18T03:19:37;3.47;;;1.77;;
35971;SDS011;22052;0.000;0.000;2023-02-18T03:24:36;2.95;;;1.77;;
35971;SDS011;22052;0.000;0.000;2023-02-18T03:27:11;3.25;;;1.73;;
35971;SDS011;22052;0.000;0.000;2023-02-18T03:29:39;3.28;;;1.88;;
35971;SDS011;22052;0.000;0.000;2023-02-18T03:32:06;4.72;;;1.67;;
35971;SDS011;22052;0.000;0.000;2023-02-18T03:34:36;2.70;;;1.63;;
35971;SDS011;22052;0.000;0.000;2023-02-18T03:37:03;3.35;;;1.70;;
35971;SDS011;22052;0.000;0.000;2023-02-18T03:39:31;3.28;;;1.70;;
35971;SDS011;22052;0.000;0.000;2023-02-18T03:41:58;3.22;;;1.63;;
35971;SDS011;22052;0.000;0.000;2023-02-18T03:44:25;3.50;;;1.95;;
35971;SDS011;22052;0.000;0.000;2023-02-18T03:46:51;3.33;;;1.63;;
35971;SDS011;22052;0.000;0.000;2023-02-18T03:49:18;3.97;;;1.70;;
35971;SDS011;22052;0.000;0.000;2023-02-18T03:51:44;3.10;;;1.77;;
35971;SDS011;22052;0.000;0.000;2023-02-18T03:54:11;3.30;;;1.60;;
35971;SDS011;22052;0.000;0.000;2023-02-18T03:56:38;2.90;;;1.50;;
35971;SDS011;22052;0.000;0.000;2023-02-18T03:59:05;3.22;;;1.77;;
35971;SDS011;22052;0.000;0.000;2023-02-18T04:01:31;3.33;;;1.70;;
35971;SDS011;22052;0.000;0.000;2023-02-18T04:03:57;3.03;;;1.67;;
35971;SDS011;22052;0.000;0.000;2023-02-18T04:06:23;3.22;;;1.60;;
35971;SDS011;22052;0.000;0.000;2023-02-18T04:08:49;2.53;;;1.50;;
35971;SDS011;22052;0.000;0.000;2023-02-18T04:11:16;3.33;;;1.65;;
35971;SDS011;22052;0.000;0.000;2023-02-18T04:13:42;3.05;;;1.50;;
35971;SDS011;22052;0.000;0.000;2023-02-18T04:16:08;2.70;;;1.42;;
35971;SDS011;22052;0.000;0.000;2023-02-18T04:18:34;2.42;;;1.38;;
35971;SDS011;22052;0.000;0.000;2023-02-18T04:21:01;3.38;;;1.60;;
35971;SDS011;22052;0.000;0.000;2023-02-18T04:23:27;3.38;;;1.50;;
35971;SDS011;22052;0.000;0.000;2023-02-18T04:25:53;4.18;;;1.83;;
35971;SDS011;22052;0.000;0.000;2023-02-18T04:28:19;3.13;;;1.60;;
35971;SDS011;22052;0.000;0.000;2023-02-18T04:30:46;2.30;;;1.17;;
35971;SDS011;22052;0.000;0.000;2023-02-18T04:33:12;2.13;;;1.35;;
35971;SDS011;22052;0.000;0.000;2023-02-18T04:35:38;4.50;;;1.52;;
35971;SDS011;22052;0.000;0.000;2023-02-18T04:38:05;2.55;;;1.40;;
35971;SDS011;22052;0.000;0.000;2023-02-18T04:40:32;2.78;;;1.58;;
35971;SDS011;22052;0.000;0.000;2023-02-18T04:42:58;2.90;;;1.63;;
35971;SDS011;22052;0.000;0.000;2023-02-18T04:45:25;2.83;;;1.48;;
35971;SDS011;22052;0.000;0.000;2023-02-18T04:47:52;2.42;;;1.30;;
35971;SDS011;22052;0.000;0.000;2023-02-18T04:50:18;2.17;;;1.20;;
35971;SDS011;22052;0.000;0.000;2023-02-18T04:52:44;2.70;;;1.35;;
35971;SDS011;22052;0.000;0.000;2023-02-18T04:55:11;2.75;;;1.60;;
35971;SDS011;22052;0.000;0.000;2023-02-18T04:57:37;2.95;;;1.42;;
35971;SDS011;22052;0.000;0.000;2023-02-18T05:00:04;2.63;;;1.50;;
35971;SDS011;22052;0.000;0.000;2023-02-18T05:02:31;2.47;;;1.63;;
35971;SDS011;22052;0.000;0.000;2023-02-18T05:04:57;2.78;;;1.30;;
35971;SDS011;22052;0.000;0.000;2023-02-18T05:07:23;4.05;;;1.70;;
35971;SDS011;22052;0.000;0.000;2023-02-18T05:09:49;4.78;;;1.60;;
35971;SDS011;22052;0.000;0.000;2023-02-18T05:12:16;2.30;;;1.45;;
35971;SDS011;22052;0.000;0.000;2023-02-18T05:14:42;2.40;;;1.35;;
35971;SDS011;22052;0.000;0.000;2023-02-18T05:17:08;2.60;;;1.42;;
35971;SDS011;22052;0.000;0.000;2023-02-18T05:19:34;2.67;;;1.50;;
35971;SDS011;22052;0.000;0.000;2023-02-18T05:22:00;1.88;;;1.27;;
35971;SDS011;22052;0.000;0.000;2023-02-18T05:24:27;2.25;;;1.25;;
35971;SDS011;22052;0.000;0.000;2023-02-18T05:26:53;2.22;;;1.20;;
35971;SDS011;22052;0.000;0.000;2023-02-18T05:29:19;3.17;;;1.40;;
35971;SDS011;22052;0.000;0.000;2023-02-18T05:31:45;2.08;;;1.20;;
35971;SDS011;22052;0.000;0.000;2023-02-18T05:34:11;5.10;;;1.50;;
35971;SDS011;22052;0.000;0.000;2023-02-18T05:36:37;2.08;;;1.30;;
35971;SDS011;22052;0.000;0.000;2023-02-18T05:39:04;2.13;;;1.23;;
35971;SDS011;22052;0.000;0.000;2023-02-18T05:41:30;2.58;;;1.25;;
35971;SDS011;22052;0.000;0.000;2023-02-18T05:43:56;2.70;;;1.30;;
35971;SDS011;22052;0.000;0.000;2023-02-18T05:46:41;2.85;;;1.40;;
35971;SDS011;22052;0.000;0.000;2023-02-18T05:49:07;1.80;;;1.25;;
35971;SDS011;22052;0.000;0.000;2023-02-18T05:51:33;2.83;;;1.30;;
35971;SDS011;22052;0.000;0.000;2023-02-18T05:53:59;2.65;;;1.38;;
35971;SDS011;22052;0.000;0.000;2023-02-18T05:56:25;2.33;;;1.45;;
35971;SDS011;22052;0.000;0.000;2023-02-18T05:58:51;2.58;;;1.30;;
35971;SDS011;22052;0.000;0.000;2023-02-18T06:01:18;2.17;;;1.38;;
35971;SDS011;22052;0.000;0.000;2023-02-18T06:03:44;1.58;;;1.10;;
35971;SDS011;22052;0.000;0.000;2023-02-18T06:06:10;3.28;;;1.48;;
35971;SDS011;22052;0.000;0.000;2023-02-18T06:08:36;2.78;;;1.40;;
35971;SDS011;22052;0.000;0.000;2023-02-18T06:11:02;1.60;;;1.20;;
35971;SDS011;22052;0.000;0.000;2023-02-18T06:13:29;2.72;;;1.17;;
35971;SDS011;22052;0.000;0.000;2023-02-18T06:15:55;2.40;;;1.27;;
35971;SDS011;22052;0.000;0.000;2023-02-18T06:18:21;1.73;;;1.10;;
35971;SDS011;22052;0.000;0.000;2023-02-18T06:20:48;2.33;;;1.23;;
35971;SDS011;22052;0.000;0.000;2023-02-18T06:23:14;2.67;;;1.30;;
35971;SDS011;22052;0.000;0.000;2023-02-18T06:25:40;1.77;;;1.10;;
35971;SDS011;22052;0.000;0.000;2023-02-18T06:28:07;2.35;;;1.23;;
35971;SDS011;22052;0.000;0.000;2023-02-18T06:30:33;1.95;;;1.45;;
35971;SDS011;22052;0.000;0.000;2023-02-18T06:32:59;2.22;;;1.08;;
35971;SDS011;22052;0.000;0.000;2023-02-18T06:35:28;1.30;;;1.10;;
35971;SDS011;22052;0.000;0.000;2023-02-18T06:37:54;1.92;;;1.30;;
35971;SDS011;22052;0.000;0.000;2023-02-18T06:40:20;2.80;;;1.45;;
35971;SDS011;22052;0.000;0.000;2023-02-18T06:42:47;1.88;;;1.30;;
35971;SDS011;22052;0.000;0.000;2023-02-18T06:45:13;1.80;;;1.20;;
35971;SDS011;22052;0.000;0.000;2023-02-18T06:47:39;2.10;;;1.30;;
35971;SDS011;22052;0.000;0.000;2023-02-18T06:50:05;2.88;;;1.42;;
35971;SDS011;22052;0.000;0.000;2023-02-18T06:52:32;1.83;;;1.23;;
35971;SDS011;22052;0.000;0.000;2023-02-18T06:54:58;1.60;;;1.20;;
35971;SDS011;22052;0.000;0.000;2023-02-18T06:57:25;1.55;;;1.13;;
35971;SDS011;22052;0.000;0.000;2023-02-18T06:59:51;2.80;;;1.23;;
35971;SDS011;22052;0.000;0.000;2023-02-18T07:02:17;2.10;;;1.20;;
35971;SDS011;22052;0.000;0.000;2023-02-18T07:04:43;2.03;;;1.20;;
35971;SDS011;22052;0.000;0.000;2023-02-18T07:07:10;1.60;;;1.00;;
35971;SDS011;22052;0.000;0.000;2023-02-18T07:09:36;2.35;;;1.23;;
35971;SDS011;22052;0.000;0.000;2023-02-18T07:12:03;1.42;;;1.13;;
35971;SDS011;22052;0.000;0.000;2023-02-18T07:14:29;1.85;;;1.10;;
35971;SDS011;22052;0.000;0.000;2023-02-18T07:16:55;1.00;;;0.80;;
35971;SDS011;22052;0.000;0.000;2023-02-18T07:19:22;1.75;;;1.17;;
35971;SDS011;22052;0.000;0.000;2023-02-18T07:21:48;2.60;;;1.30;;
35971;SDS011;22052;0.000;0.000;2023-02-18T07:24:14;2.95;;;1.65;;
35971;SDS011;22052;0.000;0.000;2023-02-18T07:26:40;1.75;;;1.15;;
35971;SDS011;22052;0.000;0.000;2023-02-18T07:29:07;1.85;;;1.23;;
35971;SDS011;22052;0.000;0.000;2023-02-18T07:31:33;1.75;;;0.93;;
35971;SDS011;22052;0.000;0.000;2023-02-18T07:33:59;1.27;;;1.10;;
35971;SDS011;22052;0.000;0.000;2023-02-18T07:36:25;1.65;;;1.10;;
35971;SDS011;22052;0.000;0.000;2023-02-18T07:38:52;1.25;;;1.00;;
35971;SDS011;22052;0.000;0.000;2023-02-18T07:41:19;1.98;;;1.10;;
35971;SDS011;22052;0.000;0.000;2023-02-18T07:43:46;1.63;;;1.10;;
35971;SDS011;22052;0.000;0.000;2023-02-18T07:46:12;2.30;;;1.30;;
35971;SDS011;22052;0.000;0.000;2023-02-18T07:48:38;1.70;;;1.00;;
35971;SDS011;22052;0.000;0.000;2023-02-18T07:51:05;1.55;;;1.00;;
35971;SDS011;22052;0.000;0.000;2023-02-18T07:53:31;1.60;;;1.00;;
35971;SDS011;22052;0.000;0.000;2023-02-18T07:55:58;2.50;;;1.35;;
35971;SDS011;22052;0.000;0.000;2023-02-18T07:58:25;1.73;;;1.00;;
35971;SDS011;22052;0.000;0.000;2023-02-18T08:00:52;1.38;;;1.00;;
35971;SDS011;22052;0.000;0.000;2023-02-18T08:03:23;2.97;;;1.10;;
35971;SDS011;22052;0.000;0.000;2023-02-18T08:05:49;4.18;;;1.25;;
35971;SDS011;22052;0.000;0.000;2023-02-18T08:08:17;2.58;;;1.10;;
35971;SDS011;22052;0.000;0.000;2023-02-18T08:10:47;1.92;;;1.10;;
35971;SDS011;22052;0.000;0.000;2023-02-18T08:13:13;1.48;;;0.95;;
35971;SDS011;22052;0.000;0.000;2023-02-18T08:15:39;1.33;;;0.93;;
35971;SDS011;22052;0.000;0.000;2023-02-18T08:18:07;2.17;;;0.93;;
35971;SDS011;22052;0.000;0.000;2023-02-18T08:20:37;1.60;;;1.15;;
35971;SDS011;22052;0.000;0.000;2023-02-18T08:23:03;3.13;;;1.00;;
35971;SDS011;22052;0.000;0.000;2023-02-18T08:25:30;1.27;;;0.98;;
35971;SDS011;22052;0.000;0.000;2023-02-18T08:27:56;1.48;;;1.05;;
35971;SDS011;22052;0.000;0.000;2023-02-18T08:30:23;1.55;;;0.88;;
35971;SDS011;22052;0.000;0.000;2023-02-18T08:32:49;1.73;;;0.90;;
35971;SDS011;22052;0.000;0.000;2023-02-18T08:35:15;1.83;;;1.00;;
35971;SDS011;22052;0.000;0.000;2023-02-18T08:37:41;1.55;;;0.90;;
35971;SDS011;22052;0.000;0.000;2023-02-18T08:40:08;2.38;;;0.88;;
35971;SDS011;22052;0.000;0.000;2023-02-18T08:42:34;1.35;;;0.90;;
35971;SDS011;22052;0.000;0.000;2023-02-18T08:45:01;1.17;;;0.98;;
35971;SDS011;22052;0.000;0.000;2023-02-18T08:47:27;2.00;;;1.10;;
35971;SDS011;22052;0.000;0.000;2023-02-18T08:49:53;1.05;;;0.90;;
35971;SDS011;22052;0.000;0.000;2023-02-18T08:52:19;2.55;;;1.05;;
35971;SDS011;22052;0.000;0.000;2023-02-18T08:54:45;1.20;;;0.90;;
35971;SDS011;22052;0.000;0.000;2023-02-18T08:57:12;1.90;;;1.10;;
35971;SDS011;22052;0.000;0.000;2023-02-18T08:59:38;1.48;;;0.80;;
35971;SDS011;22052;0.000;0.000;2023-02-18T09:02:04;1.95;;;1.10;;
35971;SDS011;22052;0.000;0.000;2023-02-18T09:04:31;0.90;;;0.80;;
35971;SDS011;22052;0.000;0.000;2023-02-18T09:06:57;2.17;;;0.90;;
35971;SDS011;22052;0.000;0.000;2023-02-18T09:09:23;1.40;;;0.82;;
35971;SDS011;22052;0.000;0.000;2023-02-18T09:11:49;1.55;;;0.90;;
35971;SDS011;22052;0.000;0.000;2023-02-18T09:14:16;1.40;;;0.88;;
35971;SDS011;22052;0.000;0.000;2023-02-18T09:16:42;1.50;;;0.90;;
35971;SDS011;22052;0.000;0.000;2023-02-18T09:19:08;1.50;;;1.10;;
35971;SDS011;22052;0.000;0.000;2023-02-18T09:21:34;1.30;;;0.88;;
35971;SDS011;22052;0.000;0.000;2023-02-18T09:24:01;1.55;;;1.05;;
35971;SDS011;22052;0.000;0.000;2023-02-18T09:26:27;1.73;;;1.00;;
35971;SDS011;22052;0.000;0.000;2023-02-18T09:28:53;1.35;;;0.82;;
35971;SDS011;22052;0.000;0.000;2023-02-18T09:31:22;1.08;;;0.90;;
35971;SDS011;22052;0.000;0.000;2023-02-18T09:33:50;1.02;;;0.93;;
35971;SDS011;22052;0.000;0.000;2023-02-18T09:36:16;1.80;;;1.20;;
35971;SDS011;22052;0.000;0.000;2023-02-18T09:38:43;1.08;;;0.90;;
35971;SDS011;22052;0.000;0.000;2023-02-18T09:41:13;1.20;;;1.00;;
35971;SDS011;22052;0.000;0.000;2023-02-18T09:43:44;1.23;;;0.90;;
35971;SDS011;22052;0.000;0.000;2023-02-18T09:46:25;1.85;;;1.10;;
35971;SDS011;22052;0.000;0.000;2023-02-18T09:48:53;1.10;;;0.93;;
35971;SDS011;22052;0.000;0.000;2023-02-18T09:51:19;1.67;;;0.90;;
35971;SDS011;22052;0.000;0.000;2023-02-18T09:53:46;1.20;;;1.05;;
35971;SDS011;22052;0.000;0.000;2023-02-18T09:56:14;1.50;;;1.00;;
35971;SDS011;22052;0.000;0.000;2023-02-18T09:58:40;1.15;;;0.90;;
35971;SDS011;22052;0.000;0.000;2023-02-18T10:03:52;1.33;;;1.00;;
35971;SDS011;22052;0.000;0.000;2023-02-18T10:06:26;1.30;;;0.82;;
35971;SDS011;22052;0.000;0.000;2023-02-18T10:08:54;1.15;;;0.90;;
35971;SDS011;22052;0.000;0.000;2023-02-18T10:11:29;1.50;;;1.05;;
35971;SDS011;22052;0.000;0.000;2023-02-18T10:13:56;1.00;;;0.90;;
35971;SDS011;22052;0.000;0.000;2023-02-18T10:16:25;2.70;;;1.20;;
35971;SDS011;22052;0.000;0.000;2023-02-18T10:18:55;1.25;;;0.85;;
35971;SDS011;22052;0.000;0.000;2023-02-18T10:21:26;1.33;;;0.80;;
35971;SDS011;22052;0.000;0.000;2023-02-18T10:24:37;1.30;;;0.90;;
35971;SDS011;22052;0.000;0.000;2023-02-18T10:26:42;1.30;;;0.90;;
35971;SDS011;22052;0.000;0.000;2023-02-18T10:29:15;1.55;;;0.95;;
35971;SDS011;22052;0.000;0.000;2023-02-18T10:31:44;2.30;;;0.98;;
35971;SDS011;22052;0.000;0.000;2023-02-18T10:36:44;1.23;;;1.00;;
35971;SDS011;22052;0.000;0.000;2023-02-18T10:39:26;1.08;;;0.80;;
35971;SDS011;22052;0.000;0.000;2023-02-18T10:52:21;1.33;;;0.90;;
35971;SDS011;22052;0.000;0.000;2023-02-18T10:57:18;1.75;;;0.90;;
35971;SDS011;22052;0.000;0.000;2023-02-18T10:59:55;1.20;;;0.75;;
35971;SDS011;22052;0.000;0.000;2023-02-18T11:02:23;1.23;;;1.02;;
35971;SDS011;22052;0.000;0.000;2023-02-18T11:04:49;1.15;;;0.80;;
35971;SDS011;22052;0.000;0.000;2023-02-18T11:07:25;1.17;;;1.00;;
35971;SDS011;22052;0.000;0.000;2023-02-18T11:09:54;1.50;;;0.90;;
35971;SDS011;22052;0.000;0.000;2023-02-18T11:12:22;1.10;;;0.80;;
35971;SDS011;22052;0.000;0.000;2023-02-18T11:15:02;1.00;;;0.80;;
35971;SDS011;22052;0.000;0.000;2023-02-18T11:17:29;1.27;;;0.80;;
35971;SDS011;22052;0.000;0.000;2023-02-18T11:19:57;1.23;;;0.82;;
35971;SDS011;22052;0.000;0.000;2023-02-18T11:22:25;1.17;;;0.98;;
35971;SDS011;22052;0.000;0.000;2023-02-18T11:24:54;1.10;;;0.98;;
35971;SDS011;22052;0.000;0.000;2023-02-18T11:29:47;1.52;;;0.90;;
35971;SDS011;22052;0.000;0.000;2023-02-18T11:32:15;1.58;;;0.90;;
35971;SDS011;22052;0.000;0.000;2023-02-18T11:34:41;0.98;;;0.80;;
35971;SDS011;22052;0.000;0.000;2023-02-18T11:37:09;0.80;;;0.80;;
35971;SDS011;22052;0.000;0.000;2023-02-18T11:39:36;1.52;;;0.77;;
35971;SDS011;22052;0.000;0.000;2023-02-18T11:42:07;2.15;;;0.95;;
35971;SDS011;22052;0.000;0.000;2023-02-18T11:44:36;1.02;;;0.93;;
35971;SDS011;22052;0.000;0.000;2023-02-18T11:47:04;1.15;;;0.80;;
35971;SDS011;22052;0.000;0.000;2023-02-18T11:49:32;1.02;;;0.80;;
35971;SDS011;22052;0.000;0.000;2023-02-18T11:52:33;1.27;;;0.90;;
35971;SDS011;22052;0.000;0.000;2023-02-18T11:55:04;0.88;;;0.80;;
35971;SDS011;22052;0.000;0.000;2023-02-18T11:57:31;0.90;;;0.70;;
35971;SDS011;22052;0.000;0.000;2023-02-18T11:59:57;0.98;;;0.80;;
35971;SDS011;22052;0.000;0.000;2023-02-18T12:02:27;1.13;;;1.00;;
35971;SDS011;22052;0.000;0.000;2023-02-18T12:04:57;1.23;;;0.93;;
35971;SDS011;22052;0.000;0.000;2023-02-18T12:07:29;1.02;;;0.70;;
35971;SDS011;22052;0.000;0.000;2023-02-18T12:10:03;0.85;;;0.80;;
35971;SDS011;22052;0.000;0.000;2023-02-18T12:12:30;1.03;;;0.90;;
35971;SDS011;22052;0.000;0.000;2023-02-18T12:14:58;1.20;;;0.80;;
35971;SDS011;22052;0.000;0.000;2023-02-18T12:17:28;0.77;;;0.70;;
35971;SDS011;22052;0.000;0.000;2023-02-18T12:33:24;1.00;;;0.90;;
35971;SDS011;22052;0.000;0.000;2023-02-18T12:36:00;1.15;;;0.90;;
35971;SDS011;22052;0.000;0.000;2023-02-18T12:44:09;0.77;;;0.65;;
35971;SDS011;22052;0.000;0.000;2023-02-18T12:57:34;1.08;;;0.90;;
35971;SDS011;22052;0.000;0.000;2023-02-18T13:00:09;1.58;;;1.00;;
35971;SDS011;22052;0.000;0.000;2023-02-18T13:07:53;0.73;;;0.68;;
35971;SDS011;22052;0.000;0.000;2023-02-18T13:10:43;1.77;;;0.90;;
35971;SDS011;22052;0.000;0.000;2023-02-18T13:13:20;1.27;;;0.90;;
35971;SDS011;22052;0.000;0.000;2023-02-18T13:18:19;2.22;;;1.10;;
35971;SDS011;22052;0.000;0.000;2023-02-18T13:20:54;2.03;;;0.88;;
35971;SDS011;22052;0.000;0.000;2023-02-18T13:23:22;0.95;;;0.70;;
35971;SDS011;22052;0.000;0.000;2023-02-18T13:25:51;1.02;;;0.80;;
35971;SDS011;22052;0.000;0.000;2023-02-18T13:28:22;1.13;;;1.00;;
35971;SDS011;22052;0.000;0.000;2023-02-18T13:36:07;1.67;;;0.90;;
35971;SDS011;22052;0.000;0.000;2023-02-18T13:41:04;0.70;;;0.70;;
35971;SDS011;22052;0.000;0.000;2023-02-18T13:43:33;1.77;;;0.90;;
35971;SDS011;22052;0.000;0.000;2023-02-18T13:46:15;1.15;;;0.90;;
35971;SDS011;22052;0.000;0.000;2023-02-18T13:48:50;1.02;;;0.75;;
35971;SDS011;22052;0.000;0.000;2023-02-18T13:51:30;1.05;;;0.80;;
35971;SDS011;22052;0.000;0.000;2023-02-18T13:54:02;1.35;;;0.80;;
35971;SDS011;22052;0.000;0.000;2023-02-18T13:56:30;1.33;;;0.75;;
35971;SDS011;22052;0.000;0.000;2023-02-18T13:59:00;0.90;;;0.70;;
35971;SDS011;22052;0.000;0.000;2023-02-18T14:03:57;1.08;;;0.82;;
35971;SDS011;22052;0.000;0.000;2023-02-18T14:06:28;0.75;;;0.68;;
35971;SDS011;22052;0.000;0.000;2023-02-18T14:11:40;0.85;;;0.80;;
35971;SDS011;22052;0.000;0.000;2023-02-18T14:14:13;1.15;;;0.70;;
35971;SDS011;22052;0.000;0.000;2023-02-18T14:19:27;1.10;;;0.80;;
35971;SDS011;22052;0.000;0.000;2023-02-18T14:22:21;1.38;;;0.80;;
35971;SDS011;22052;0.000;0.000;2023-02-18T14:24:47;0.85;;;0.80;;
35971;SDS011;22052;0.000;0.000;2023-02-18T14:27:15;0.70;;;0.60;;
35971;SDS011;22052;0.000;0.000;2023-02-18T14:29:41;1.10;;;0.85;;
35971;SDS011;22052;0.000;0.000;2023-02-18T14:32:10;1.23;;;0.80;;
35971;SDS011;22052;0.000;0.000;2023-02-18T14:42:47;0.70;;;0.60;;
35971;SDS011;22052;0.000;0.000;2023-02-18T14:48:13;0.90;;;0.70;;
35971;SDS011;22052;0.000;0.000;2023-02-18T14:50:43;1.23;;;0.75;;
35971;SDS011;22052;0.000;0.000;2023-02-18T14:53:12;1.00;;;0.90;;
35971;SDS011;22052;0.000;0.000;2023-02-18T14:55:46;1.20;;;0.80;;
35971;SDS011;22052;0.000;0.000;2023-02-18T14:58:25;1.05;;;0.65;;
35971;SDS011;22052;0.000;0.000;2023-02-18T15:00:52;0.80;;;0.70;;
35971;SDS011;22052;0.000;0.000;2023-02-18T15:03:19;1.02;;;0.75;;
35971;SDS011;22052;0.000;0.000;2023-02-18T15:05:46;0.77;;;0.77;;
35971;SDS011;22052;0.000;0.000;2023-02-18T15:13:08;0.80;;;0.80;;
35971;SDS011;22052;0.000;0.000;2023-02-18T15:15:38;1.92;;;0.88;;
35971;SDS011;22052;0.000;0.000;2023-02-18T15:18:04;0.88;;;0.77;;
35971;SDS011;22052;0.000;0.000;2023-02-18T15:20:31;0.73;;;0.70;;
35971;SDS011;22052;0.000;0.000;2023-02-18T15:22:59;0.60;;;0.60;;
35971;SDS011;22052;0.000;0.000;2023-02-18T15:25:25;1.73;;;0.70;;
35971;SDS011;22052;0.000;0.000;2023-02-18T15:27:51;0.77;;;0.73;;
35971;SDS011;22052;0.000;0.000;2023-02-18T15:32:50;1.05;;;0.80;;
35971;SDS011;22052;0.000;0.000;2023-02-18T15:35:17;0.90;;;0.80;;
35971;SDS011;22052;0.000;0.000;2023-02-18T15:37:44;1.63;;;0.70;;
35971;SDS011;22052;0.000;0.000;2023-02-18T15:40:12;1.00;;;0.88;;
35971;SDS011;22052;0.000;0.000;2023-02-18T15:42:38;0.98;;;0.80;;
35971;SDS011;22052;0.000;0.000;2023-02-18T15:47:44;1.20;;;0.70;;
35971;SDS011;22052;0.000;0.000;2023-02-18T15:50:15;0.70;;;0.70;;
35971;SDS011;22052;0.000;0.000;2023-02-18T15:52:42;0.80;;;0.70;;
35971;SDS011;22052;0.000;0.000;2023-02-18T15:55:12;0.90;;;0.60;;
35971;SDS011;22052;0.000;0.000;2023-02-18T15:57:39;1.05;;;0.70;;
35971;SDS011;22052;0.000;0.000;2023-02-18T16:00:13;0.98;;;0.88;;
35971;SDS011;22052;0.000;0.000;2023-02-18T16:03:01;1.10;;;0.82;;
35971;SDS011;22052;0.000;0.000;2023-02-18T16:05:28;0.70;;;0.70;;
35971;SDS011;22052;0.000;0.000;2023-02-18T16:08:03;0.80;;;0.80;;
35971;SDS011;22052;0.000;0.000;2023-02-18T16:13:01;0.82;;;0.80;;
35971;SDS011;22052;0.000;0.000;2023-02-18T16:15:31;1.08;;;0.77;;
35971;SDS011;22052;0.000;0.000;2023-02-18T16:18:02;0.90;;;0.77;;
35971;SDS011;22052;0.000;0.000;2023-02-18T16:20:30;1.05;;;0.80;;
35971;SDS011;22052;0.000;0.000;2023-02-18T16:23:00;0.70;;;0.70;;
35971;SDS011;22052;0.000;0.000;2023-02-18T16:28:30;1.40;;;0.80;;
35971;SDS011;22052;0.000;0.000;2023-02-18T16:30:56;0.90;;;0.80;;
35971;SDS011;22052;0.000;0.000;2023-02-18T16:33:22;0.70;;;0.70;;
35971;SDS011;22052;0.000;0.000;2023-02-18T16:35:49;1.10;;;0.68;;
35971;SDS011;22052;0.000;0.000;2023-02-18T16:38:15;1.05;;;0.73;;
35971;SDS011;22052;0.000;0.000;2023-02-18T16:40:42;0.70;;;0.60;;
35971;SDS011;22052;0.000;0.000;2023-02-18T16:43:13;0.95;;;0.80;;
35971;SDS011;22052;0.000;0.000;2023-02-18T16:45:58;0.95;;;0.70;;
35971;SDS011;22052;0.000;0.000;2023-02-18T16:50:55;1.00;;;0.70;;
35971;SDS011;22052;0.000;0.000;2023-02-18T16:53:21;1.20;;;0.82;;
35971;SDS011;22052;0.000;0.000;2023-02-18T16:55:48;0.98;;;0.80;;
35971;SDS011;22052;0.000;0.000;2023-02-18T16:58:17;1.00;;;0.80;;
35971;SDS011;22052;0.000;0.000;2023-02-18T17:00:44;1.02;;;0.75;;
35971;SDS011;22052;0.000;0.000;2023-02-18T17:03:11;1.00;;;0.80;;
35971;SDS011;22052;0.000;0.000;2023-02-18T17:05:38;0.80;;;0.77;;
35971;SDS011;22052;0.000;0.000;2023-02-18T17:10:40;1.15;;;0.80;;
35971;SDS011;22052;0.000;0.000;2023-02-18T17:13:09;1.17;;;0.73;;
35971;SDS011;22052;0.000;0.000;2023-02-18T17:15:38;0.70;;;0.70;;
35971;SDS011;22052;0.000;0.000;2023-02-18T17:18:04;0.85;;;0.70;;
35971;SDS011;22052;0.000;0.000;2023-02-18T17:20:31;1.05;;;0.68;;
35971;SDS011;22052;0.000;0.000;2023-02-18T17:22:57;0.90;;;0.80;;
35971;SDS011;22052;0.000;0.000;2023-02-18T17:25:44;0.85;;;0.70;;